Time;durP1;ratioP1;P1;durP2;ratioP2;P2;SDS_P1;SDS_P2;PMS_P1;PMS_P2;Temp;Humidity;BMP_temperature;BMP_pressure;BME280_temperature;BME280_humidity;BME280_pressure;Samples;Min_cycle;Max_cycle;Signal;HPM_P1;HPM_P2
2021/01/10 00:00:43;;;;;;;5.38;2.60;;;7.20;90.80;;;;;;5060270;28;20448;-78
2021/01/10 00:03:13;;;;;;;4.90;3.00;;;7.20;90.50;;;;;;5059462;28;20032;-77
2021/01/10 00:05:42;;;;;;;3.13;2.60;;;7.20;90.30;;;;;;5058946;28;20040;-76
2021/01/10 00:08:09;;;;;;;4.70;3.35;;;7.20;91.00;;;;;;5059032;28;20040;-78
2021/01/10 00:10:36;;;;;;;5.35;3.28;;;7.20;91.00;;;;;;5057243;28;20045;-76
2021/01/10 00:13:05;;;;;;;3.70;2.90;;;7.20;90.90;;;;;;5061527;28;20439;-75
2021/01/10 00:15:32;;;;;;;4.57;3.20;;;7.20;90.90;;;;;;5042649;28;20135;-77
2021/01/10 00:18:05;;;;;;;7.13;4.82;;;7.20;91.40;;;;;;5056353;28;20530;-76
2021/01/10 00:20:33;;;;;;;3.72;2.80;;;7.20;91.50;;;;;;5060970;28;20043;-77
2021/01/10 00:23:02;;;;;;;3.75;2.63;;;7.20;91.20;;;;;;5056747;28;20049;-77
2021/01/10 00:25:30;;;;;;;5.05;3.40;;;7.20;90.80;;;;;;5073330;28;20577;-77
2021/01/10 00:27:58;;;;;;;4.53;2.42;;;7.20;91.00;;;;;;5039946;28;20090;-77
2021/01/10 00:30:25;;;;;;;3.50;2.65;;;7.20;90.90;;;;;;5056900;28;20032;-77
2021/01/10 00:32:54;;;;;;;4.97;2.70;;;7.10;91.50;;;;;;5058612;28;20047;-77
2021/01/10 00:35:24;;;;;;;3.08;2.38;;;7.20;91.20;;;;;;5042008;28;20275;-76
2021/01/10 00:37:53;;;;;;;3.97;2.78;;;7.20;91.30;;;;;;5037797;28;20041;-77
2021/01/10 00:40:22;;;;;;;2.65;2.42;;;7.20;90.90;;;;;;5076460;28;20048;-77
2021/01/10 00:42:49;;;;;;;3.83;2.72;;;7.10;91.10;;;;;;5050396;28;20063;-77
2021/01/10 00:45:18;;;;;;;4.10;2.88;;;7.10;91.20;;;;;;5075423;28;20668;-78
2021/01/10 00:47:53;;;;;;;3.75;2.55;;;7.20;91.20;;;;;;5059583;28;20048;-76
2021/01/10 00:50:27;;;;;;;3.22;2.85;;;7.10;91.00;;;;;;5059852;28;20575;-78
2021/01/10 00:52:54;;;;;;;3.78;2.88;;;7.10;91.00;;;;;;5058181;28;20195;-77
2021/01/10 00:55:22;;;;;;;3.25;2.47;;;7.10;91.40;;;;;;5050686;28;20040;-78
2021/01/10 00:57:51;;;;;;;4.68;3.22;;;7.10;91.50;;;;;;5056868;28;20044;-77
2021/01/10 01:00:23;;;;;;;4.82;3.50;;;7.10;91.90;;;;;;5059115;28;20088;-77
2021/01/10 01:02:51;;;;;;;4.15;3.22;;;7.10;92.00;;;;;;5054785;28;20037;-77
2021/01/10 01:05:22;;;;;;;4.55;3.38;;;7.00;91.90;;;;;;5059768;28;20068;-77
2021/01/10 01:07:52;;;;;;;4.60;3.00;;;7.10;92.10;;;;;;5057622;28;20126;-77
2021/01/10 01:10:26;;;;;;;5.18;3.47;;;7.00;91.50;;;;;;5056883;28;20048;-78
2021/01/10 01:12:53;;;;;;;4.53;3.45;;;7.00;92.20;;;;;;5056106;28;20092;-78
2021/01/10 01:15:20;;;;;;;3.92;3.03;;;7.00;92.10;;;;;;5059056;28;20037;-77
2021/01/10 01:17:48;;;;;;;3.85;3.00;;;7.00;92.20;;;;;;5042671;28;20048;-77
2021/01/10 01:20:16;;;;;;;5.00;3.45;;;7.00;92.20;;;;;;5057945;28;20076;-77
2021/01/10 01:22:43;;;;;;;3.80;3.00;;;7.00;92.40;;;;;;5039943;28;20106;-77
2021/01/10 01:25:12;;;;;;;5.05;3.28;;;7.00;92.30;;;;;;5055720;28;20036;-77
2021/01/10 01:27:39;;;;;;;4.40;3.05;;;7.00;92.40;;;;;;5056128;28;20410;-77
2021/01/10 01:30:08;;;;;;;4.18;3.30;;;7.00;92.20;;;;;;5060447;28;20032;-77
2021/01/10 01:32:36;;;;;;;5.07;3.15;;;7.00;92.20;;;;;;5058312;28;20040;-76
2021/01/10 01:35:04;;;;;;;3.67;2.90;;;7.00;92.50;;;;;;5057750;28;20068;-76
2021/01/10 01:37:33;;;;;;;3.72;2.67;;;7.00;92.00;;;;;;5060936;28;20094;-77
2021/01/10 01:40:03;;;;;;;4.75;3.33;;;7.00;92.10;;;;;;5040632;28;20047;-76
2021/01/10 01:42:31;;;;;;;3.92;2.78;;;7.00;91.90;;;;;;5058480;28;20090;-72
2021/01/10 01:44:58;;;;;;;3.88;3.00;;;7.00;91.60;;;;;;5059566;28;20071;-72
2021/01/10 01:47:25;;;;;;;4.22;2.97;;;7.00;92.10;;;;;;5055189;28;20064;-72
2021/01/10 01:49:52;;;;;;;3.67;2.67;;;7.00;92.00;;;;;;5054500;28;20067;-72
2021/01/10 01:52:20;;;;;;;4.43;3.30;;;7.00;91.70;;;;;;5058087;28;20262;-72
2021/01/10 01:54:48;;;;;;;3.90;2.88;;;7.00;91.80;;;;;;5051770;28;20048;-72
2021/01/10 01:57:16;;;;;;;5.13;3.25;;;7.00;91.60;;;;;;5058737;28;20435;-73
2021/01/10 01:59:45;;;;;;;4.63;3.15;;;7.00;91.30;;;;;;5054940;28;20041;-72
2021/01/10 02:02:13;;;;;;;4.93;3.22;;;6.90;91.50;;;;;;5058517;28;20051;-72
2021/01/10 02:04:48;;;;;;;4.57;3.30;;;6.90;92.10;;;;;;5056901;28;20446;-73
2021/01/10 02:07:22;;;;;;;4.32;3.15;;;6.90;91.90;;;;;;5059718;28;20032;-72
2021/01/10 02:09:58;;;;;;;4.10;3.30;;;7.00;91.70;;;;;;5055223;28;20048;-72
2021/01/10 02:12:29;;;;;;;3.83;2.80;;;7.00;91.80;;;;;;5054291;28;20036;-72
2021/01/10 02:15:00;;;;;;;3.60;2.60;;;7.00;92.00;;;;;;5053780;28;20048;-73
2021/01/10 02:17:28;;;;;;;3.88;2.60;;;7.00;91.80;;;;;;5060079;28;20044;-72
2021/01/10 02:20:00;;;;;;;3.88;2.90;;;7.00;91.50;;;;;;5056901;28;20092;-73
2021/01/10 02:22:33;;;;;;;3.55;3.00;;;7.00;91.70;;;;;;5046933;28;20081;-73
2021/01/10 02:25:02;;;;;;;3.35;2.72;;;7.00;91.30;;;;;;5058363;28;20033;-72
2021/01/10 02:27:30;;;;;;;3.53;2.60;;;7.00;91.10;;;;;;5053890;28;20118;-72
2021/01/10 02:29:58;;;;;;;4.72;2.42;;;7.00;90.80;;;;;;5054384;28;20045;-72
2021/01/10 02:32:27;;;;;;;3.63;2.70;;;7.00;90.80;;;;;;5040651;28;20398;-72
2021/01/10 02:34:56;;;;;;;4.00;2.88;;;7.10;91.10;;;;;;5040803;28;20139;-73
2021/01/10 02:37:41;;;;;;;4.22;3.03;;;7.10;90.90;;;;;;5055129;28;20036;-72
2021/01/10 02:40:14;;;;;;;3.85;2.67;;;7.10;91.10;;;;;;5039660;28;20056;-72
2021/01/10 02:42:48;;;;;;;3.65;2.47;;;7.10;91.50;;;;;;5057299;28;20564;-72
2021/01/10 02:45:20;;;;;;;3.30;2.58;;;7.10;91.20;;;;;;5057227;28;21175;-72
2021/01/10 02:47:48;;;;;;;3.10;2.30;;;7.10;91.20;;;;;;5056996;28;20052;-72
2021/01/10 02:50:17;;;;;;;4.15;2.60;;;7.10;91.20;;;;;;5040652;28;20044;-72
2021/01/10 02:52:47;;;;;;;3.83;2.83;;;7.10;91.10;;;;;;5055474;28;20068;-73
2021/01/10 02:55:15;;;;;;;3.45;2.80;;;7.10;91.20;;;;;;5054709;28;20044;-73
2021/01/10 02:57:45;;;;;;;3.08;2.60;;;7.10;91.50;;;;;;5057049;28;20041;-72
2021/01/10 03:00:15;;;;;;;4.97;2.80;;;7.10;91.40;;;;;;5044386;28;20139;-72
2021/01/10 03:02:46;;;;;;;3.33;2.78;;;7.10;91.10;;;;;;5056677;28;20472;-72
2021/01/10 03:05:14;;;;;;;4.40;2.40;;;7.10;91.30;;;;;;5058628;28;20560;-72
2021/01/10 03:07:44;;;;;;;3.17;2.35;;;7.10;91.20;;;;;;5056275;28;20046;-73
2021/01/10 03:10:12;;;;;;;3.60;2.53;;;7.10;91.20;;;;;;5054852;28;20040;-72
2021/01/10 03:12:41;;;;;;;3.90;2.53;;;7.10;91.20;;;;;;5055526;28;20110;-72
2021/01/10 03:15:10;;;;;;;3.10;2.50;;;7.10;91.20;;;;;;5057848;28;20128;-72
2021/01/10 03:17:44;;;;;;;3.90;2.55;;;7.10;91.30;;;;;;5056049;28;20052;-73
2021/01/10 03:20:14;;;;;;;4.38;2.63;;;7.10;91.40;;;;;;5052711;28;20524;-73
2021/01/10 03:22:42;;;;;;;4.13;2.47;;;7.10;91.50;;;;;;5056789;28;20509;-72
2021/01/10 03:25:10;;;;;;;3.85;2.50;;;7.10;91.80;;;;;;5056566;28;20052;-73
2021/01/10 03:27:38;;;;;;;2.90;2.60;;;7.10;91.90;;;;;;5030026;28;20464;-72
2021/01/10 03:30:09;;;;;;;4.80;3.33;;;7.10;92.20;;;;;;5050373;28;20063;-73
2021/01/10 03:32:36;;;;;;;3.08;2.53;;;7.10;92.20;;;;;;5055523;28;20045;-72
2021/01/10 03:35:05;;;;;;;2.78;2.30;;;7.10;92.10;;;;;;5061684;28;20219;-72
2021/01/10 03:37:33;;;;;;;3.33;2.47;;;7.10;92.10;;;;;;5066903;28;20572;-73
2021/01/10 03:40:02;;;;;;;4.38;2.70;;;7.10;91.90;;;;;;5056296;28;20036;-72
2021/01/10 03:42:29;;;;;;;4.40;2.50;;;7.10;92.20;;;;;;5060329;28;20032;-72
2021/01/10 03:44:57;;;;;;;3.42;2.40;;;7.10;92.40;;;;;;5070154;28;20036;-72
2021/01/10 03:47:25;;;;;;;2.67;2.28;;;7.10;92.30;;;;;;5072866;28;20627;-72
2021/01/10 03:49:52;;;;;;;3.45;2.60;;;7.10;92.30;;;;;;5061905;28;20040;-71
2021/01/10 03:52:20;;;;;;;4.45;2.92;;;7.10;92.30;;;;;;5059421;28;20041;-72
2021/01/10 03:54:47;;;;;;;3.85;2.25;;;7.10;92.10;;;;;;5033094;28;20122;-72
2021/01/10 03:57:14;;;;;;;3.35;2.33;;;7.10;92.30;;;;;;5060541;28;20039;-72
2021/01/10 03:59:41;;;;;;;3.33;2.60;;;7.10;92.30;;;;;;5072083;28;20117;-72
2021/01/10 04:02:09;;;;;;;4.90;2.80;;;7.10;92.50;;;;;;5045329;28;20504;-72
2021/01/10 04:04:37;;;;;;;4.05;2.80;;;7.10;92.80;;;;;;5059745;28;20041;-73
2021/01/10 04:07:06;;;;;;;4.03;2.78;;;7.10;92.40;;;;;;5059590;28;20279;-72
2021/01/10 04:09:33;;;;;;;4.30;2.60;;;7.10;92.10;;;;;;5057750;28;20082;-72
2021/01/10 04:12:00;;;;;;;3.20;2.55;;;7.10;92.00;;;;;;5060623;28;20497;-72
2021/01/10 04:14:27;;;;;;;3.97;2.60;;;7.20;92.10;;;;;;5056699;28;20346;-72
2021/01/10 04:16:54;;;;;;;4.53;2.92;;;7.20;92.00;;;;;;5057964;28;20124;-72
2021/01/10 04:19:22;;;;;;;3.97;2.60;;;7.20;92.20;;;;;;5060542;28;20037;-73
2021/01/10 04:21:50;;;;;;;3.17;2.55;;;7.20;92.00;;;;;;5057691;28;20133;-72
2021/01/10 04:24:17;;;;;;;3.33;2.47;;;7.20;91.90;;;;;;5041913;28;20033;-73
2021/01/10 04:26:47;;;;;;;3.05;2.28;;;7.20;91.70;;;;;;5057266;28;20033;-72
2021/01/10 04:29:15;;;;;;;3.35;2.50;;;7.20;91.70;;;;;;5042472;28;20132;-72
2021/01/10 04:31:42;;;;;;;3.58;2.50;;;7.20;91.30;;;;;;5060213;28;20037;-72
2021/01/10 04:34:10;;;;;;;3.20;2.35;;;7.20;91.10;;;;;;5059333;28;20044;-72
2021/01/10 04:36:37;;;;;;;3.53;2.78;;;7.20;91.20;;;;;;5043416;28;20067;-72
2021/01/10 04:39:05;;;;;;;3.38;2.70;;;7.20;91.30;;;;;;5056951;28;20052;-72
2021/01/10 04:41:33;;;;;;;5.10;2.90;;;7.20;91.30;;;;;;5061847;28;20048;-72
2021/01/10 04:44:02;;;;;;;3.42;2.60;;;7.20;91.80;;;;;;5044003;28;20047;-72
2021/01/10 04:46:30;;;;;;;3.65;2.80;;;7.20;91.70;;;;;;5060696;28;20436;-73
2021/01/10 04:48:59;;;;;;;3.25;2.60;;;7.20;91.90;;;;;;5051640;28;20072;-73
2021/01/10 04:51:27;;;;;;;3.38;2.58;;;7.20;91.90;;;;;;5059822;28;20302;-73
2021/01/10 04:53:57;;;;;;;3.10;2.30;;;7.30;91.90;;;;;;5057642;28;20075;-72
2021/01/10 04:56:28;;;;;;;3.97;2.58;;;7.20;91.90;;;;;;5059439;28;20110;-73
2021/01/10 04:59:01;;;;;;;3.25;2.60;;;7.30;92.10;;;;;;5056865;28;20032;-71
2021/01/10 05:01:33;;;;;;;3.22;2.60;;;7.30;92.30;;;;;;5060800;28;20048;-72
2021/01/10 05:04:03;;;;;;;3.78;3.15;;;7.30;92.30;;;;;;5059794;28;20051;-73
2021/01/10 05:06:33;;;;;;;4.07;2.53;;;7.30;92.60;;;;;;5059511;28;20043;-72
2021/01/10 05:09:03;;;;;;;3.97;2.70;;;7.30;92.80;;;;;;5058833;28;20029;-73
2021/01/10 05:11:31;;;;;;;3.25;2.47;;;7.30;92.90;;;;;;5060452;28;20125;-72
2021/01/10 05:13:58;;;;;;;3.85;2.80;;;7.30;93.70;;;;;;5059524;28;20102;-73
2021/01/10 05:16:31;;;;;;;2.75;2.30;;;7.30;94.80;;;;;;5036816;28;20043;-73
2021/01/10 05:19:00;;;;;;;5.20;2.13;;;7.30;94.80;;;;;;5060470;28;20056;-71
2021/01/10 05:21:28;;;;;;;2.83;2.30;;;7.30;95.40;;;;;;5057857;28;20517;-72
2021/01/10 05:23:56;;;;;;;3.85;2.67;;;7.20;95.90;;;;;;5052187;28;20045;-73
2021/01/10 05:26:32;;;;;;;4.78;2.90;;;7.20;96.70;;;;;;5059532;28;20074;-72
2021/01/10 05:29:06;;;;;;;3.53;2.70;;;7.20;96.70;;;;;;5059411;28;20036;-73
2021/01/10 05:31:34;;;;;;;3.85;2.47;;;7.10;96.70;;;;;;5039763;28;20082;-72
2021/01/10 05:34:03;;;;;;;3.10;2.58;;;7.10;96.70;;;;;;5072498;28;20055;-72
2021/01/10 05:36:31;;;;;;;4.20;2.38;;;7.00;96.70;;;;;;5058018;28;20044;-72
2021/01/10 05:39:15;;;;;;;2.92;2.15;;;7.00;96.70;;;;;;5054719;28;20581;-72
2021/01/10 05:41:50;;;;;;;2.92;2.15;;;6.90;96.70;;;;;;5055183;28;20040;-73
2021/01/10 05:44:18;;;;;;;3.00;2.35;;;6.90;96.70;;;;;;5059051;28;20046;-72
2021/01/10 05:46:46;;;;;;;3.45;2.33;;;6.80;96.70;;;;;;5050581;28;20387;-72
2021/01/10 05:49:18;;;;;;;5.00;2.60;;;6.80;96.70;;;;;;5042843;28;20532;-72
2021/01/10 05:51:45;;;;;;;3.97;2.42;;;6.70;96.70;;;;;;5057136;28;20048;-72
2021/01/10 05:54:35;;;;;;;2.92;2.38;;;6.60;96.70;;;;;;5058080;28;20049;-72
2021/01/10 05:57:05;;;;;;;3.35;2.55;;;6.50;96.70;;;;;;5055554;28;20053;-72
2021/01/10 05:59:35;;;;;;;3.45;2.50;;;6.40;96.70;;;;;;5056364;28;20382;-72
2021/01/10 06:02:04;;;;;;;3.42;2.40;;;6.40;96.70;;;;;;5056966;28;20040;-72
2021/01/10 06:04:32;;;;;;;5.78;2.67;;;6.30;96.70;;;;;;5056729;28;20048;-73
2021/01/10 06:07:00;;;;;;;3.85;2.60;;;6.20;96.70;;;;;;5043814;28;20047;-72
2021/01/10 06:09:27;;;;;;;5.88;3.00;;;6.20;96.70;;;;;;5058913;28;20055;-72
2021/01/10 06:11:55;;;;;;;3.20;2.45;;;6.10;96.70;;;;;;5059103;28;20072;-72
2021/01/10 06:14:26;;;;;;;4.78;2.97;;;6.10;96.70;;;;;;5068876;28;20049;-72
2021/01/10 06:16:55;;;;;;;4.53;2.80;;;6.00;96.70;;;;;;5038480;28;20115;-73
2021/01/10 06:19:27;;;;;;;4.03;2.83;;;6.00;96.70;;;;;;5057116;28;20462;-72
2021/01/10 06:21:56;;;;;;;5.38;2.85;;;6.00;96.70;;;;;;5056987;28;20098;-72
2021/01/10 06:24:24;;;;;;;4.07;2.85;;;5.90;96.70;;;;;;5057675;28;20222;-72
2021/01/10 06:27:01;;;;;;;4.45;2.90;;;5.90;96.70;;;;;;5059036;28;20497;-72
2021/01/10 06:29:39;;;;;;;3.80;2.50;;;5.80;96.70;;;;;;5053878;28;20045;-73
2021/01/10 06:32:11;;;;;;;3.47;2.60;;;5.80;96.70;;;;;;5052680;28;20036;-73
2021/01/10 06:34:41;;;;;;;4.88;3.40;;;5.80;96.70;;;;;;5040560;28;20037;-73
2021/01/10 06:37:09;;;;;;;4.43;2.88;;;5.90;96.70;;;;;;5056111;28;20037;-72
2021/01/10 06:39:45;;;;;;;4.18;2.63;;;5.80;96.70;;;;;;5052541;28;20036;-73
2021/01/10 06:42:13;;;;;;;3.78;2.55;;;5.80;96.70;;;;;;5057323;28;20412;-72
2021/01/10 06:44:46;;;;;;;4.95;2.80;;;5.70;96.70;;;;;;5055815;28;20051;-73
2021/01/10 06:47:19;;;;;;;5.57;2.85;;;5.70;96.70;;;;;;5058229;28;20056;-72
2021/01/10 06:49:46;;;;;;;3.47;2.65;;;5.70;96.70;;;;;;5042037;28;20058;-72
2021/01/10 06:52:14;;;;;;;3.65;2.17;;;5.70;96.70;;;;;;5056668;28;20041;-72
2021/01/10 06:54:44;;;;;;;2.97;2.10;;;5.70;96.70;;;;;;5041573;28;20127;-72
2021/01/10 06:57:13;;;;;;;3.58;2.30;;;5.70;96.70;;;;;;5057521;28;20037;-72
2021/01/10 06:59:59;;;;;;;3.10;2.15;;;5.70;96.70;;;;;;5057501;28;20118;-72
2021/01/10 07:02:27;;;;;;;3.50;2.17;;;5.70;96.70;;;;;;5055557;28;20383;-72
2021/01/10 07:04:58;;;;;;;2.50;1.77;;;5.70;96.70;;;;;;5058109;28;20390;-72
2021/01/10 07:07:41;;;;;;;3.17;1.75;;;5.70;96.70;;;;;;5057206;28;20116;-73
2021/01/10 07:10:11;;;;;;;2.88;2.00;;;5.70;96.70;;;;;;5056485;28;20118;-73
2021/01/10 07:12:38;;;;;;;2.42;2.05;;;5.70;96.70;;;;;;5057301;28;20079;-72
2021/01/10 07:15:23;;;;;;;2.65;1.88;;;5.80;96.70;;;;;;5056805;28;20041;-72
2021/01/10 07:18:01;;;;;;;2.20;1.48;;;5.70;96.70;;;;;;5053346;28;20516;-72
2021/01/10 07:20:34;;;;;;;2.25;1.80;;;5.70;96.70;;;;;;5055354;28;20037;-72
2021/01/10 07:23:24;;;;;;;1.98;1.55;;;5.70;96.70;;;;;;5058256;28;20104;-72
2021/01/10 07:25:51;;;;;;;2.97;1.85;;;5.80;96.70;;;;;;5052478;28;20049;-73
2021/01/10 07:28:36;;;;;;;2.35;1.88;;;5.80;96.70;;;;;;5049053;28;20040;-72
2021/01/10 07:31:19;;;;;;;2.65;1.90;;;5.80;96.70;;;;;;5053781;28;20044;-72
2021/01/10 07:34:07;;;;;;;2.15;1.50;;;5.80;96.70;;;;;;5038966;28;20044;-72
2021/01/10 07:36:47;;;;;;;1.60;1.25;;;5.80;96.70;;;;;;5048237;28;20032;-72
2021/01/10 07:39:15;;;;;;;2.20;1.35;;;5.90;96.70;;;;;;5054177;28;20064;-72
2021/01/10 07:41:42;;;;;;;1.60;1.33;;;5.80;96.70;;;;;;5056919;28;20037;-73
2021/01/10 07:44:10;;;;;;;2.55;1.38;;;5.80;96.70;;;;;;5040731;28;20178;-72
2021/01/10 07:46:53;;;;;;;2.33;1.45;;;5.90;96.70;;;;;;5055471;28;20574;-72
2021/01/10 07:49:22;;;;;;;1.23;1.10;;;5.90;96.70;;;;;;5042926;28;20124;-72
2021/01/10 07:51:49;;;;;;;1.35;0.90;;;5.90;96.70;;;;;;5056522;28;20090;-72
2021/01/10 07:54:18;;;;;;;2.00;1.00;;;5.80;96.70;;;;;;5055890;28;20516;-73
2021/01/10 07:56:45;;;;;;;1.52;1.00;;;5.90;96.70;;;;;;5049002;28;20032;-72
2021/01/10 07:59:14;;;;;;;1.63;1.08;;;5.90;96.70;;;;;;5055612;28;20036;-72
2021/01/10 08:01:49;;;;;;;1.45;0.98;;;5.90;96.70;;;;;;5053464;28;20055;-73
2021/01/10 08:04:33;;;;;;;1.40;1.10;;;6.00;96.70;;;;;;5073954;28;20052;-72
2021/01/10 08:07:03;;;;;;;1.35;1.20;;;6.00;96.70;;;;;;5057087;28;20141;-72
2021/01/10 08:09:32;;;;;;;1.52;1.10;;;6.00;96.70;;;;;;5037961;28;20045;-73
2021/01/10 08:11:59;;;;;;;1.98;0.95;;;6.00;96.70;;;;;;5055658;28;20078;-72
2021/01/10 08:14:27;;;;;;;1.23;1.05;;;6.00;96.70;;;;;;5066942;28;20402;-72
2021/01/10 08:16:54;;;;;;;1.52;1.05;;;6.00;96.70;;;;;;5058961;28;20409;-72
2021/01/10 08:19:22;;;;;;;1.65;1.40;;;6.10;96.70;;;;;;5042891;28;20152;-72
2021/01/10 08:21:52;;;;;;;1.73;1.30;;;6.10;96.70;;;;;;5059768;28;20522;-72
2021/01/10 08:24:19;;;;;;;1.83;1.10;;;6.10;96.70;;;;;;5058522;28;20040;-72
2021/01/10 08:26:46;;;;;;;1.48;1.20;;;6.10;96.70;;;;;;5057970;28;20049;-73
2021/01/10 08:29:17;;;;;;;1.67;1.02;;;6.00;96.70;;;;;;5059397;28;20557;-72
2021/01/10 08:31:50;;;;;;;2.10;1.40;;;6.10;96.70;;;;;;5056838;28;20040;-72
2021/01/10 08:34:19;;;;;;;2.35;1.20;;;6.10;96.70;;;;;;5068447;28;20120;-73
2021/01/10 08:36:47;;;;;;;1.42;1.00;;;6.10;96.70;;;;;;5060019;28;20498;-72
2021/01/10 08:39:18;;;;;;;1.42;1.20;;;6.10;96.70;;;;;;5057231;28;20413;-71
2021/01/10 08:41:47;;;;;;;1.67;1.40;;;6.10;96.70;;;;;;5058686;28;20041;-73
2021/01/10 08:44:16;;;;;;;2.17;1.23;;;6.10;96.70;;;;;;5054641;28;20119;-73
2021/01/10 08:46:45;;;;;;;2.15;1.58;;;6.20;96.70;;;;;;5059655;28;20052;-72
2021/01/10 08:49:15;;;;;;;2.00;1.40;;;6.20;96.70;;;;;;5057478;28;20045;-72
2021/01/10 08:51:43;;;;;;;2.25;1.45;;;6.20;96.70;;;;;;5060738;28;20415;-72
2021/01/10 08:54:12;;;;;;;2.20;1.50;;;6.20;96.70;;;;;;5039644;28;20410;-72
2021/01/10 08:56:42;;;;;;;2.53;1.40;;;6.20;96.70;;;;;;5055949;28;20139;-73
2021/01/10 08:59:11;;;;;;;1.58;1.05;;;6.20;96.70;;;;;;5058122;28;20040;-72
2021/01/10 09:01:40;;;;;;;1.83;1.25;;;6.20;96.70;;;;;;5042572;28;20179;-72
2021/01/10 09:04:09;;;;;;;1.58;1.10;;;6.30;96.70;;;;;;5056183;28;20498;-72
2021/01/10 09:06:50;;;;;;;1.80;1.10;;;6.30;96.70;;;;;;5048565;28;20045;-73
2021/01/10 09:09:25;;;;;;;2.45;1.02;;;6.40;96.70;;;;;;5040209;28;20417;-74
2021/01/10 09:12:15;;;;;;;2.80;1.48;;;6.40;96.70;;;;;;5033962;28;20130;-73
2021/01/10 09:14:48;;;;;;;1.25;0.90;;;6.40;96.70;;;;;;5055664;28;20064;-72
2021/01/10 09:17:20;;;;;;;1.77;1.30;;;6.40;96.70;;;;;;5055951;28;20037;-72
2021/01/10 09:19:50;;;;;;;1.73;1.27;;;6.40;96.70;;;;;;5058927;28;20044;-71
2021/01/10 09:22:17;;;;;;;1.80;1.00;;;6.50;96.70;;;;;;5055174;28;20044;-75
2021/01/10 09:24:44;;;;;;;1.27;1.00;;;6.50;96.70;;;;;;5058300;28;20056;-74
2021/01/10 09:27:14;;;;;;;1.65;1.17;;;6.50;96.70;;;;;;5051449;28;20350;-73
2021/01/10 09:29:42;;;;;;;1.50;1.40;;;6.50;96.70;;;;;;5056090;28;20044;-77
2021/01/10 09:32:10;;;;;;;1.95;1.38;;;6.50;96.70;;;;;;5057366;28;20037;-70
2021/01/10 09:34:37;;;;;;;3.47;1.30;;;6.50;96.70;;;;;;5038325;28;20475;-74
2021/01/10 09:37:06;;;;;;;2.45;1.58;;;6.50;96.70;;;;;;5049852;28;20051;-72
2021/01/10 09:39:39;;;;;;;1.85;1.30;;;6.40;96.70;;;;;;5057432;28;20691;-73
2021/01/10 09:42:07;;;;;;;1.33;1.00;;;6.40;96.70;;;;;;5056894;28;20040;-73
2021/01/10 09:44:35;;;;;;;1.50;1.13;;;6.40;96.70;;;;;;5056068;28;20502;-75
2021/01/10 09:47:03;;;;;;;2.40;1.60;;;6.40;96.70;;;;;;5055594;28;20037;-72
2021/01/10 09:49:30;;;;;;;2.67;1.88;;;6.40;96.70;;;;;;5056455;28;20033;-72
2021/01/10 09:51:59;;;;;;;2.08;1.50;;;6.50;96.70;;;;;;5052573;28;20080;-75
2021/01/10 09:54:28;;;;;;;3.03;1.90;;;6.50;96.70;;;;;;5042696;28;20432;-72
2021/01/10 09:56:56;;;;;;;2.70;1.90;;;6.60;96.70;;;;;;5056074;28;20036;-74
2021/01/10 09:59:33;;;;;;;2.00;1.60;;;6.60;96.70;;;;;;5049059;28;20538;-73
2021/01/10 10:02:08;;;;;;;2.38;1.48;;;6.60;96.70;;;;;;5055590;28;20041;-73
2021/01/10 10:04:35;;;;;;;1.80;1.23;;;6.60;96.70;;;;;;5055157;28;20059;-75
2021/01/10 10:07:03;;;;;;;2.30;1.38;;;6.60;96.70;;;;;;5052066;28;20055;-73
2021/01/10 10:09:49;;;;;;;2.45;1.95;;;6.70;96.70;;;;;;5053429;28;20075;-72
2021/01/10 10:12:17;;;;;;;2.80;1.50;;;6.70;96.70;;;;;;5052515;28;20611;-74
2021/01/10 10:14:53;;;;;;;2.08;1.40;;;6.70;96.70;;;;;;5055916;28;20041;-74
2021/01/10 10:17:25;;;;;;;1.60;1.17;;;6.70;96.70;;;;;;5053902;28;20482;-73
2021/01/10 10:19:53;;;;;;;1.30;0.90;;;6.70;96.70;;;;;;5057374;28;20777;-75
2021/01/10 10:22:23;;;;;;;1.85;1.40;;;6.60;96.70;;;;;;5057726;28;20560;-76
2021/01/10 10:24:51;;;;;;;2.25;1.73;;;6.60;96.70;;;;;;5056914;28;20051;-75
2021/01/10 10:27:19;;;;;;;2.08;1.30;;;6.60;96.70;;;;;;5057207;28;20040;-75
2021/01/10 10:29:46;;;;;;;4.00;1.70;;;6.60;96.70;;;;;;5057197;28;20044;-75
2021/01/10 10:32:14;;;;;;;4.00;2.53;;;6.80;96.70;;;;;;5054821;28;20045;-71
2021/01/10 10:34:42;;;;;;;2.00;1.58;;;6.80;96.70;;;;;;5038849;28;20057;-71
2021/01/10 10:37:09;;;;;;;2.35;2.00;;;6.80;96.70;;;;;;5057680;28;20135;-73
2021/01/10 10:39:37;;;;;;;2.30;1.85;;;6.80;96.70;;;;;;5056980;28;20440;-73
2021/01/10 10:42:08;;;;;;;2.65;1.65;;;6.80;96.70;;;;;;5058785;28;20501;-72
2021/01/10 10:56:24;;;;;;;2.33;1.67;;;6.70;96.70;;;;;;5060097;27;20422;-76
2021/01/10 10:58:52;;;;;;;1.83;1.30;;;6.90;96.70;;;;;;5065426;28;20047;-75
2021/01/10 11:01:20;;;;;;;1.90;1.33;;;7.00;96.70;;;;;;5056644;28;20139;-76
2021/01/10 11:03:48;;;;;;;2.28;1.35;;;7.00;96.70;;;;;;5054790;28;20798;-77
2021/01/10 11:06:16;;;;;;;1.63;1.30;;;7.00;96.70;;;;;;5053965;28;20064;-76
2021/01/10 11:08:43;;;;;;;1.52;1.02;;;7.00;96.70;;;;;;5036880;28;20043;-76
2021/01/10 11:11:10;;;;;;;3.05;1.80;;;7.00;96.70;;;;;;5053542;28;20476;-75
2021/01/10 11:13:42;;;;;;;4.00;2.00;;;7.00;96.70;;;;;;5051398;28;20037;-75
2021/01/10 11:19:13;;;;;;;2.20;1.60;;;7.00;96.70;;;;;;5193377;23;20075;-70
2021/01/10 11:21:43;;;;;;;3.22;1.70;;;7.10;96.70;;;;;;4896124;29;20644;-71
2021/01/10 11:24:11;;;;;;;2.38;1.50;;;7.10;96.70;;;;;;4883643;29;20044;-72
2021/01/10 11:26:40;;;;;;;2.67;1.63;;;7.10;96.70;;;;;;4878838;29;20040;-70
2021/01/10 11:29:08;;;;;;;3.22;1.33;;;7.10;96.70;;;;;;4880044;29;20098;-71
2021/01/10 11:31:37;;;;;;;1.30;1.05;;;7.10;96.70;;;;;;4866362;29;20507;-73
2021/01/10 11:34:07;;;;;;;2.38;1.30;;;7.10;96.70;;;;;;4881367;29;20170;-74
2021/01/10 11:36:35;;;;;;;2.03;1.60;;;7.10;96.70;;;;;;4887449;29;20040;-75
2021/01/10 11:39:04;;;;;;;3.38;2.30;;;7.20;96.70;;;;;;4888286;29;20454;-74
2021/01/10 11:41:31;;;;;;;2.45;1.70;;;7.20;96.70;;;;;;4876972;29;20049;-75
2021/01/10 11:43:59;;;;;;;2.08;1.58;;;7.30;96.70;;;;;;4879233;29;20143;-73
2021/01/10 11:46:27;;;;;;;4.50;2.28;;;7.30;96.70;;;;;;4880745;29;20117;-77
2021/01/10 11:48:54;;;;;;;1.98;1.52;;;7.30;96.70;;;;;;4879539;29;20707;-73
2021/01/10 11:51:22;;;;;;;2.72;2.00;;;7.30;96.70;;;;;;4868085;29;20423;-73
2021/01/10 11:53:49;;;;;;;2.50;1.30;;;7.30;96.70;;;;;;4880828;29;20149;-75
2021/01/10 11:56:17;;;;;;;2.58;1.40;;;7.30;96.70;;;;;;4877167;29;20040;-72
2021/01/10 11:58:44;;;;;;;1.95;1.27;;;7.30;96.70;;;;;;4868973;29;20065;-71
2021/01/10 12:01:12;;;;;;;3.58;1.58;;;7.40;96.70;;;;;;4876681;29;20566;-72
2021/01/10 12:03:42;;;;;;;3.38;1.65;;;7.40;96.70;;;;;;4862168;29;20685;-72
2021/01/10 12:06:17;;;;;;;2.45;1.05;;;7.40;96.70;;;;;;4872953;29;20058;-77
2021/01/10 12:08:45;;;;;;;1.92;1.42;;;7.30;96.70;;;;;;4869316;29;20067;-74
2021/01/10 12:11:14;;;;;;;2.28;1.50;;;7.30;96.70;;;;;;4869867;29;20693;-77
2021/01/10 12:13:42;;;;;;;1.80;0.85;;;7.30;96.70;;;;;;4856587;29;20052;-75
2021/01/10 12:16:11;;;;;;;2.08;1.05;;;7.40;96.70;;;;;;4875775;29;20040;-72
2021/01/10 12:18:40;;;;;;;2.03;1.30;;;7.40;96.70;;;;;;4865896;29;20065;-73
2021/01/10 12:21:09;;;;;;;1.60;0.93;;;7.50;96.70;;;;;;4866517;29;20077;-73
2021/01/10 12:23:37;;;;;;;1.52;0.98;;;7.50;96.70;;;;;;4869009;29;20060;-73
2021/01/10 12:26:08;;;;;;;2.30;1.00;;;7.40;96.70;;;;;;4878798;29;20065;-74
2021/01/10 12:28:35;;;;;;;1.15;0.77;;;7.40;96.70;;;;;;4871057;29;20504;-73
2021/01/10 12:31:04;;;;;;;2.20;1.10;;;7.40;96.70;;;;;;4866740;29;20048;-73
2021/01/10 12:33:32;;;;;;;2.78;0.60;;;7.50;96.70;;;;;;4866116;29;20049;-72
2021/01/10 12:36:00;;;;;;;1.52;0.98;;;7.60;96.70;;;;;;4868394;29;20489;-73
2021/01/10 12:38:28;;;;;;;1.02;0.60;;;7.70;96.70;;;;;;4867483;29;20037;-72
2021/01/10 12:40:56;;;;;;;1.00;0.75;;;7.70;96.70;;;;;;4865779;29;20653;-73
2021/01/10 12:43:23;;;;;;;1.10;0.70;;;7.70;96.70;;;;;;4847667;29;20042;-73
2021/01/10 12:45:51;;;;;;;1.63;0.70;;;7.70;96.70;;;;;;4865999;29;20562;-73
2021/01/10 12:48:19;;;;;;;1.67;0.80;;;7.70;96.70;;;;;;4867957;29;20052;-72
2021/01/10 12:50:47;;;;;;;1.33;0.70;;;7.70;96.70;;;;;;4863571;29;20060;-72
2021/01/10 12:53:16;;;;;;;1.15;0.60;;;7.70;96.70;;;;;;4867950;29;20632;-73
2021/01/10 12:55:44;;;;;;;1.88;1.08;;;7.70;96.70;;;;;;4880411;29;20443;-74
2021/01/10 12:58:12;;;;;;;1.08;0.52;;;7.70;96.70;;;;;;4863369;29;20078;-74
2021/01/10 13:00:41;;;;;;;1.30;0.60;;;7.70;96.70;;;;;;4865756;29;20047;-74
2021/01/10 13:03:09;;;;;;;2.13;0.60;;;7.70;96.70;;;;;;4867130;29;20045;-73
2021/01/10 13:05:37;;;;;;;3.25;0.60;;;7.70;95.80;;;;;;4865187;29;20080;-74
2021/01/10 13:08:05;;;;;;;1.10;0.70;;;7.70;95.20;;;;;;4857769;29;20041;-74
2021/01/10 13:10:33;;;;;;;0.68;0.30;;;7.70;95.20;;;;;;4864868;29;20144;-73
2021/01/10 13:13:01;;;;;;;0.73;0.70;;;7.70;94.70;;;;;;4856810;29;20049;-73
2021/01/10 13:15:28;;;;;;;1.20;0.70;;;7.70;94.70;;;;;;4854601;29;20041;-73
2021/01/10 13:17:55;;;;;;;0.98;0.57;;;7.80;95.10;;;;;;4858617;29;20060;-72
2021/01/10 13:20:23;;;;;;;0.98;0.80;;;7.80;95.20;;;;;;4868120;29;20069;-72
2021/01/10 13:22:51;;;;;;;1.08;0.68;;;7.80;95.10;;;;;;4870206;29;20053;-73
2021/01/10 13:25:18;;;;;;;0.75;0.60;;;7.90;94.50;;;;;;4851908;29;20076;-72